イスタンブル の空港の天気 - METARとTAF

アタテュルク国際空港(イスタンブル) ( LTBA / IST ) - トルコ イスタンブル
飛行場実況気象(Metar)
観測時間06/23 04:20 EET (06/23 01:20 UTC)
風向・風速北 1m/s
視程10km以上
天気現象
なし
気温20℃
湿度88%
気圧1016hPa
METARLTBA 230120Z 35001KT CAVOK 20/18 Q1016 NOSIG RMK RWY17L 36003KT RWY05 VRB01KT RWY23 VRB01KT
過去の天気等 Google飛行場航空写真 Wunderground天気予報

過去48時間のMETAR

飛行場予報(TAF)
発表時間: 6/23 01:40 EET (6/22 22:40 UTC)
予報対象時間: 23日3時 EET ~ 24日9時 EET
風向・風速不定 1m/s
視程10km以上
なし
23日8時 EET ~ 23日11時 EET に徐々に
風向・風速南西 6m/s
23日20時 EET ~ 23日23時 EET に徐々に
風向・風速不定 1m/s
TAF LTBA 222240Z 2300/2406 VRB02KT CAVOK
BECMG 2305/2308 22012KT
BECMG 2317/2320 VRB02KT